sensor_id;sensor_type;location;lat;lon;timestamp;pressure;altitude;pressure_sealevel;temperature;humidity
52032;BME280;38044;45.148;39.604;2022-11-04T00:01:43;101163.63;;;10.51;84.78
52032;BME280;38044;45.148;39.604;2022-11-04T00:04:10;101196.94;;;10.55;84.81
52032;BME280;38044;45.148;39.604;2022-11-04T00:06:37;101202.06;;;10.52;84.95
52032;BME280;38044;45.148;39.604;2022-11-04T00:09:05;101172.50;;;10.47;84.85
52032;BME280;38044;45.148;39.604;2022-11-04T00:11:31;101153.97;;;10.45;84.29
52032;BME280;38044;45.148;39.604;2022-11-04T00:14:16;101111.34;;;10.13;84.09
52032;BME280;38044;45.148;39.604;2022-11-04T00:16:42;101190.75;;;10.55;84.44
52032;BME280;38044;45.148;39.604;2022-11-04T00:19:26;101168.78;;;10.32;84.47
52032;BME280;38044;45.148;39.604;2022-11-04T00:21:54;101095.28;;;9.92;84.55
52032;BME280;38044;45.148;39.604;2022-11-04T00:24:38;101123.38;;;10.21;84.40
52032;BME280;38044;45.148;39.604;2022-11-04T00:27:15;101113.44;;;10.26;84.25
52032;BME280;38044;45.148;39.604;2022-11-04T00:30:00;101103.56;;;10.11;83.93
52032;BME280;38044;45.148;39.604;2022-11-04T00:32:26;101124.44;;;10.35;84.07
52032;BME280;38044;45.148;39.604;2022-11-04T00:35:11;101129.25;;;10.43;83.98
52032;BME280;38044;45.148;39.604;2022-11-04T00:37:42;101083.66;;;10.18;84.45
52032;BME280;38044;45.148;39.604;2022-11-04T00:40:13;101168.41;;;10.65;84.67
52032;BME280;38044;45.148;39.604;2022-11-04T00:42:43;101116.91;;;10.37;84.62
52032;BME280;38044;45.148;39.604;2022-11-04T00:45:09;101138.38;;;10.47;84.48
52032;BME280;38044;45.148;39.604;2022-11-04T00:47:35;101097.59;;;10.25;84.35
52032;BME280;38044;45.148;39.604;2022-11-04T00:50:01;101072.13;;;10.07;83.61
52032;BME280;38044;45.148;39.604;2022-11-04T00:52:26;101135.63;;;10.57;83.31
52032;BME280;38044;45.148;39.604;2022-11-04T00:54:52;101031.38;;;9.89;83.14
52032;BME280;38044;45.148;39.604;2022-11-04T00:57:18;101062.72;;;10.04;83.24
52032;BME280;38044;45.148;39.604;2022-11-04T00:59:44;101147.53;;;10.41;83.20
52032;BME280;38044;45.148;39.604;2022-11-04T01:02:11;101149.72;;;10.29;83.94
52032;BME280;38044;45.148;39.604;2022-11-04T01:04:38;101100.69;;;9.82;84.21
52032;BME280;38044;45.148;39.604;2022-11-04T01:07:03;101166.91;;;10.23;84.53
52032;BME280;38044;45.148;39.604;2022-11-04T01:09:29;101156.69;;;10.30;84.67
52032;BME280;38044;45.148;39.604;2022-11-04T01:11:55;101095.56;;;9.81;84.51
52032;BME280;38044;45.148;39.604;2022-11-04T01:14:21;101049.75;;;9.57;83.89
52032;BME280;38044;45.148;39.604;2022-11-04T01:16:50;101174.44;;;10.31;84.12
52032;BME280;38044;45.148;39.604;2022-11-04T01:19:16;101071.97;;;9.73;83.93
52032;BME280;38044;45.148;39.604;2022-11-04T01:21:42;101060.72;;;9.65;83.76
52032;BME280;38044;45.148;39.604;2022-11-04T01:24:09;101125.03;;;10.17;83.75
52032;BME280;38044;45.148;39.604;2022-11-04T01:26:35;101117.00;;;10.01;83.49
52032;BME280;38044;45.148;39.604;2022-11-04T01:29:01;101112.72;;;9.90;83.67
52032;BME280;38044;45.148;39.604;2022-11-04T01:31:29;101159.97;;;10.11;83.63
52032;BME280;38044;45.148;39.604;2022-11-04T01:33:56;101152.47;;;9.98;83.77
52032;BME280;38044;45.148;39.604;2022-11-04T01:36:22;101111.19;;;9.74;84.00
52032;BME280;38044;45.148;39.604;2022-11-04T01:38:49;101143.84;;;10.01;84.26
52032;BME280;38044;45.148;39.604;2022-11-04T01:41:29;101143.28;;;10.14;84.01
52032;BME280;38044;45.148;39.604;2022-11-04T01:44:01;101051.63;;;9.56;83.29
52032;BME280;38044;45.148;39.604;2022-11-04T01:46:44;101143.03;;;10.16;83.60
52032;BME280;38044;45.148;39.604;2022-11-04T01:49:32;101154.00;;;10.35;83.83
52032;BME280;38044;45.148;39.604;2022-11-04T01:52:08;101132.00;;;10.12;83.82
52032;BME280;38044;45.148;39.604;2022-11-04T01:54:36;101154.03;;;10.25;83.66
52032;BME280;38044;45.148;39.604;2022-11-04T01:57:06;101122.09;;;10.08;83.62
52032;BME280;38044;45.148;39.604;2022-11-04T01:59:37;101123.94;;;10.12;83.87
52032;BME280;38044;45.148;39.604;2022-11-04T02:02:04;101156.19;;;10.18;83.99
52032;BME280;38044;45.148;39.604;2022-11-04T02:04:30;101152.16;;;10.10;84.12
52032;BME280;38044;45.148;39.604;2022-11-04T02:07:02;101060.72;;;9.55;84.17
52032;BME280;38044;45.148;39.604;2022-11-04T02:09:31;101114.34;;;9.91;83.85
52032;BME280;38044;45.148;39.604;2022-11-04T02:11:58;101145.50;;;9.97;83.87
52032;BME280;38044;45.148;39.604;2022-11-04T02:14:43;101119.75;;;9.81;83.79
52032;BME280;38044;45.148;39.604;2022-11-04T02:19:58;101145.19;;;10.19;83.83
52032;BME280;38044;45.148;39.604;2022-11-04T02:22:57;101127.19;;;10.09;83.72
52032;BME280;38044;45.148;39.604;2022-11-04T02:31:10;101136.69;;;9.76;83.39
52032;BME280;38044;45.148;39.604;2022-11-04T02:39:50;101150.94;;;9.36;84.22
52032;BME280;38044;45.148;39.604;2022-11-04T02:48:19;101107.41;;;8.83;86.03
52032;BME280;38044;45.148;39.604;2022-11-04T02:53:50;101147.38;;;8.94;85.99
52032;BME280;38044;45.148;39.604;2022-11-04T02:56:22;101137.41;;;8.64;85.87
52032;BME280;38044;45.148;39.604;2022-11-04T02:58:55;101129.38;;;8.64;86.63
52032;BME280;38044;45.148;39.604;2022-11-04T03:03:56;101133.97;;;8.79;86.86
52032;BME280;38044;45.148;39.604;2022-11-04T03:06:24;101127.81;;;8.78;86.70
52032;BME280;38044;45.148;39.604;2022-11-04T03:08:52;101131.81;;;8.86;86.66
52032;BME280;38044;45.148;39.604;2022-11-04T03:11:21;101139.88;;;8.96;86.77
52032;BME280;38044;45.148;39.604;2022-11-04T03:13:49;101053.22;;;8.45;86.71
52032;BME280;38044;45.148;39.604;2022-11-04T03:16:20;101141.22;;;9.04;86.75
52032;BME280;38044;45.148;39.604;2022-11-04T03:18:53;101149.28;;;9.14;86.44
52032;BME280;38044;45.148;39.604;2022-11-04T03:21:23;101140.97;;;9.11;86.42
52032;BME280;38044;45.148;39.604;2022-11-04T03:23:51;101099.91;;;8.95;86.67
52032;BME280;38044;45.148;39.604;2022-11-04T03:26:38;101133.47;;;9.13;86.56
52032;BME280;38044;45.148;39.604;2022-11-04T03:29:43;101109.84;;;8.94;86.18
52032;BME280;38044;45.148;39.604;2022-11-04T03:32:12;101061.28;;;8.50;86.16
52032;BME280;38044;45.148;39.604;2022-11-04T03:34:44;101095.06;;;8.66;86.06
52032;BME280;38044;45.148;39.604;2022-11-04T03:37:10;101128.81;;;8.72;86.32
52032;BME280;38044;45.148;39.604;2022-11-04T03:39:36;101125.91;;;8.74;86.56
52032;BME280;38044;45.148;39.604;2022-11-04T03:42:05;101149.22;;;8.73;86.68
52032;BME280;38044;45.148;39.604;2022-11-04T03:44:51;101134.19;;;8.72;87.00
52032;BME280;38044;45.148;39.604;2022-11-04T03:47:18;101060.06;;;8.20;86.73
52032;BME280;38044;45.148;39.604;2022-11-04T03:49:47;101143.03;;;8.63;87.13
52032;BME280;38044;45.148;39.604;2022-11-04T03:52:13;101147.56;;;8.62;87.67
52032;BME280;38044;45.148;39.604;2022-11-04T03:54:41;101086.28;;;8.18;87.96
52032;BME280;38044;45.148;39.604;2022-11-04T03:57:22;101151.38;;;8.76;88.43
52032;BME280;38044;45.148;39.604;2022-11-04T04:05:19;101159.47;;;9.02;87.51
52032;BME280;38044;45.148;39.604;2022-11-04T04:11:04;101172.59;;;9.03;87.37
52032;BME280;38044;45.148;39.604;2022-11-04T04:15:58;101184.16;;;9.14;87.40
52032;BME280;38044;45.148;39.604;2022-11-04T04:18:32;101157.06;;;9.11;87.50
52032;BME280;38044;45.148;39.604;2022-11-04T04:21:04;101171.84;;;9.29;87.26
52032;BME280;38044;45.148;39.604;2022-11-04T04:23:33;101155.50;;;9.30;87.13
52032;BME280;38044;45.148;39.604;2022-11-04T04:26:19;101160.59;;;9.42;86.69
52032;BME280;38044;45.148;39.604;2022-11-04T04:29:05;101165.94;;;9.47;86.97
52032;BME280;38044;45.148;39.604;2022-11-04T04:31:32;101150.94;;;9.51;86.64
52032;BME280;38044;45.148;39.604;2022-11-04T04:34:21;101069.63;;;8.99;86.29
52032;BME280;38044;45.148;39.604;2022-11-04T04:36:56;101117.09;;;9.30;85.97
52032;BME280;38044;45.148;39.604;2022-11-04T04:39:34;101179.91;;;9.69;86.02
52032;BME280;38044;45.148;39.604;2022-11-04T04:42:20;101024.84;;;8.64;85.45
52032;BME280;38044;45.148;39.604;2022-11-04T04:45:05;101174.00;;;9.62;85.91
52032;BME280;38044;45.148;39.604;2022-11-04T04:47:43;101179.63;;;9.76;85.85
52032;BME280;38044;45.148;39.604;2022-11-04T04:50:15;101109.59;;;9.37;85.76
52032;BME280;38044;45.148;39.604;2022-11-04T04:52:46;101097.00;;;9.37;85.15
52032;BME280;38044;45.148;39.604;2022-11-04T04:55:13;101181.22;;;9.98;84.77
52032;BME280;38044;45.148;39.604;2022-11-04T04:57:40;101180.34;;;10.18;84.76
52032;BME280;38044;45.148;39.604;2022-11-04T05:00:08;101188.94;;;10.30;84.58
52032;BME280;38044;45.148;39.604;2022-11-04T05:02:34;101111.94;;;9.95;84.30
52032;BME280;38044;45.148;39.604;2022-11-04T05:05:00;101179.78;;;10.41;84.08
52032;BME280;38044;45.148;39.604;2022-11-04T05:07:26;101125.03;;;10.17;83.84
52032;BME280;38044;45.148;39.604;2022-11-04T05:09:52;101165.75;;;10.59;83.49
52032;BME280;38044;45.148;39.604;2022-11-04T05:12:19;101126.56;;;10.38;82.88
52032;BME280;38044;45.148;39.604;2022-11-04T05:14:45;101196.31;;;10.74;82.43
52032;BME280;38044;45.148;39.604;2022-11-04T05:17:11;101098.72;;;10.13;82.14
52032;BME280;38044;45.148;39.604;2022-11-04T05:19:38;101195.53;;;10.68;82.14
52032;BME280;38044;45.148;39.604;2022-11-04T05:22:04;101192.00;;;10.73;82.00
52032;BME280;38044;45.148;39.604;2022-11-04T05:24:30;101209.22;;;10.72;81.82
52032;BME280;38044;45.148;39.604;2022-11-04T05:26:56;101210.31;;;10.76;81.93
52032;BME280;38044;45.148;39.604;2022-11-04T05:29:22;101200.47;;;11.05;81.39
52032;BME280;38044;45.148;39.604;2022-11-04T05:31:48;101153.06;;;11.10;80.52
52032;BME280;38044;45.148;39.604;2022-11-04T05:34:14;101178.81;;;11.21;79.64
52032;BME280;38044;45.148;39.604;2022-11-04T05:36:40;101210.00;;;11.27;79.80
52032;BME280;38044;45.148;39.604;2022-11-04T05:39:06;101191.50;;;11.20;79.52
52032;BME280;38044;45.148;39.604;2022-11-04T05:41:33;101219.16;;;11.26;79.76
52032;BME280;38044;45.148;39.604;2022-11-04T05:44:01;101177.72;;;10.88;79.64
52032;BME280;38044;45.148;39.604;2022-11-04T05:46:28;101184.78;;;11.18;79.70
52032;BME280;38044;45.148;39.604;2022-11-04T05:48:54;101217.38;;;11.85;78.80
52032;BME280;38044;45.148;39.604;2022-11-04T05:51:23;101233.31;;;12.63;77.60
52032;BME280;38044;45.148;39.604;2022-11-04T05:53:49;101249.69;;;13.34;75.00
52032;BME280;38044;45.148;39.604;2022-11-04T05:56:15;101148.81;;;13.06;73.57
52032;BME280;38044;45.148;39.604;2022-11-04T05:58:41;101234.91;;;13.64;72.45
52032;BME280;38044;45.148;39.604;2022-11-04T06:01:24;101230.53;;;13.68;71.77
52032;BME280;38044;45.148;39.604;2022-11-04T06:03:51;101231.91;;;13.66;71.89
52032;BME280;38044;45.148;39.604;2022-11-04T06:06:18;101228.00;;;14.05;70.89
52032;BME280;38044;45.148;39.604;2022-11-04T06:08:44;101198.06;;;14.01;70.07
52032;BME280;38044;45.148;39.604;2022-11-04T06:11:10;101217.91;;;14.93;68.31
52032;BME280;38044;45.148;39.604;2022-11-04T06:13:36;101227.94;;;15.96;65.54
52032;BME280;38044;45.148;39.604;2022-11-04T06:16:02;101229.13;;;16.93;63.10
52032;BME280;38044;45.148;39.604;2022-11-04T06:18:28;101228.31;;;17.70;60.28
52032;BME280;38044;45.148;39.604;2022-11-04T06:23:41;101216.00;;;17.82;58.14
52032;BME280;38044;45.148;39.604;2022-11-04T06:26:08;101238.56;;;17.13;59.90
52032;BME280;38044;45.148;39.604;2022-11-04T06:28:34;101198.91;;;16.77;60.33
52032;BME280;38044;45.148;39.604;2022-11-04T06:31:02;101250.22;;;17.83;58.84
52032;BME280;38044;45.148;39.604;2022-11-04T06:33:29;101195.44;;;18.69;56.71
52032;BME280;38044;45.148;39.604;2022-11-04T06:35:59;101164.66;;;18.18;55.96
52032;BME280;38044;45.148;39.604;2022-11-04T06:38:25;101171.75;;;17.46;56.66
52032;BME280;38044;45.148;39.604;2022-11-04T06:40:51;101210.91;;;17.71;55.96
52032;BME280;38044;45.148;39.604;2022-11-04T06:43:17;101234.47;;;18.14;55.36
52032;BME280;38044;45.148;39.604;2022-11-04T06:45:43;101233.31;;;18.24;55.73
52032;BME280;38044;45.148;39.604;2022-11-04T06:48:09;101217.25;;;18.40;55.30
52032;BME280;38044;45.148;39.604;2022-11-04T06:50:35;101221.13;;;19.31;53.28
52032;BME280;38044;45.148;39.604;2022-11-04T06:53:00;101222.19;;;20.06;49.86
52032;BME280;38044;45.148;39.604;2022-11-04T06:55:26;101149.78;;;19.63;48.94
52032;BME280;38044;45.148;39.604;2022-11-04T06:57:52;101215.16;;;20.41;48.78
52032;BME280;38044;45.148;39.604;2022-11-04T07:00:18;101208.69;;;21.23;46.81
52032;BME280;38044;45.148;39.604;2022-11-04T07:02:44;101201.63;;;20.69;47.89
52032;BME280;38044;45.148;39.604;2022-11-04T07:05:10;101222.56;;;19.71;48.99
52032;BME280;38044;45.148;39.604;2022-11-04T07:07:36;101221.81;;;18.48;51.24
52032;BME280;38044;45.148;39.604;2022-11-04T07:10:02;101230.09;;;17.84;52.62
52032;BME280;38044;45.148;39.604;2022-11-04T07:12:28;101228.47;;;17.65;53.38
52032;BME280;38044;45.148;39.604;2022-11-04T07:14:54;101215.34;;;17.85;52.52
52032;BME280;38044;45.148;39.604;2022-11-04T07:17:20;101214.97;;;18.42;51.44
52032;BME280;38044;45.148;39.604;2022-11-04T07:19:46;101139.03;;;18.79;49.78
52032;BME280;38044;45.148;39.604;2022-11-04T07:22:12;101160.34;;;19.52;47.65
52032;BME280;38044;45.148;39.604;2022-11-04T07:24:38;101215.28;;;20.45;45.85
52032;BME280;38044;45.148;39.604;2022-11-04T07:27:04;101197.00;;;20.58;46.27
52032;BME280;38044;45.148;39.604;2022-11-04T07:29:32;101175.56;;;20.23;45.96
52032;BME280;38044;45.148;39.604;2022-11-04T07:31:58;101137.16;;;20.03;46.44
52032;BME280;38044;45.148;39.604;2022-11-04T07:34:24;101137.34;;;20.23;46.42
52032;BME280;38044;45.148;39.604;2022-11-04T07:36:49;101132.09;;;20.42;45.73
52032;BME280;38044;45.148;39.604;2022-11-04T07:39:16;101213.53;;;21.30;44.34
52032;BME280;38044;45.148;39.604;2022-11-04T07:41:41;101151.13;;;21.04;45.08
52032;BME280;38044;45.148;39.604;2022-11-04T07:44:10;101192.97;;;21.48;44.66
52032;BME280;38044;45.148;39.604;2022-11-04T07:46:36;101220.25;;;21.32;43.20
52032;BME280;38044;45.148;39.604;2022-11-04T07:49:02;101206.94;;;20.90;44.97
52032;BME280;38044;45.148;39.604;2022-11-04T07:51:28;101214.25;;;21.14;45.54
52032;BME280;38044;45.148;39.604;2022-11-04T07:53:57;101229.63;;;21.59;44.05
52032;BME280;38044;45.148;39.604;2022-11-04T07:56:23;101187.66;;;21.40;44.62
52032;BME280;38044;45.148;39.604;2022-11-04T07:58:49;101165.34;;;21.09;44.32
52032;BME280;38044;45.148;39.604;2022-11-04T08:01:18;101215.63;;;21.49;45.06
52032;BME280;38044;45.148;39.604;2022-11-04T08:03:44;101189.44;;;21.48;44.85
52032;BME280;38044;45.148;39.604;2022-11-04T08:06:12;101207.97;;;21.54;44.22
52032;BME280;38044;45.148;39.604;2022-11-04T08:08:39;101130.66;;;20.98;45.29
52032;BME280;38044;45.148;39.604;2022-11-04T08:11:14;101229.13;;;21.86;44.23
52032;BME280;38044;45.148;39.604;2022-11-04T08:13:42;101219.72;;;21.99;44.16
52032;BME280;38044;45.148;39.604;2022-11-04T08:16:14;101221.94;;;22.25;44.47
52032;BME280;38044;45.148;39.604;2022-11-04T08:18:40;101159.22;;;21.72;44.82
52032;BME280;38044;45.148;39.604;2022-11-04T08:21:07;101218.13;;;22.14;44.12
52032;BME280;38044;45.148;39.604;2022-11-04T08:23:34;101203.25;;;22.15;44.48
52032;BME280;38044;45.148;39.604;2022-11-04T08:26:00;101227.09;;;22.26;44.52
52032;BME280;38044;45.148;39.604;2022-11-04T08:28:27;101222.56;;;22.34;44.07
52032;BME280;38044;45.148;39.604;2022-11-04T08:31:01;101202.66;;;21.90;43.62
52032;BME280;38044;45.148;39.604;2022-11-04T08:33:28;101228.19;;;21.50;44.29
52032;BME280;38044;45.148;39.604;2022-11-04T08:35:58;101198.81;;;21.06;45.74
52032;BME280;38044;45.148;39.604;2022-11-04T08:38:24;101179.94;;;21.29;45.99
52032;BME280;38044;45.148;39.604;2022-11-04T08:40:50;101184.78;;;21.08;45.86
52032;BME280;38044;45.148;39.604;2022-11-04T08:43:16;101129.13;;;20.60;46.52
52032;BME280;38044;45.148;39.604;2022-11-04T08:45:44;101205.03;;;21.75;45.48
52032;BME280;38044;45.148;39.604;2022-11-04T08:48:11;101207.25;;;21.86;45.35
52032;BME280;38044;45.148;39.604;2022-11-04T08:50:38;101188.53;;;21.88;43.86
52032;BME280;38044;45.148;39.604;2022-11-04T08:53:04;101184.28;;;20.90;46.25
52032;BME280;38044;45.148;39.604;2022-11-04T08:55:31;101168.09;;;21.25;46.49
52032;BME280;38044;45.148;39.604;2022-11-04T08:57:57;101168.31;;;21.32;45.62
52032;BME280;38044;45.148;39.604;2022-11-04T09:00:23;101187.97;;;20.69;46.80
52032;BME280;38044;45.148;39.604;2022-11-04T09:02:49;101187.22;;;21.25;46.19
52032;BME280;38044;45.148;39.604;2022-11-04T09:05:16;101184.47;;;21.81;45.86
52032;BME280;38044;45.148;39.604;2022-11-04T09:07:42;101168.00;;;20.93;46.02
52032;BME280;38044;45.148;39.604;2022-11-04T09:10:09;101127.50;;;20.06;47.57
52032;BME280;38044;45.148;39.604;2022-11-04T09:12:35;101190.38;;;20.22;48.52
52032;BME280;38044;45.148;39.604;2022-11-04T09:15:02;101190.94;;;20.52;47.85
52032;BME280;38044;45.148;39.604;2022-11-04T09:17:30;101182.16;;;20.34;48.34
52032;BME280;38044;45.148;39.604;2022-11-04T09:19:56;101182.50;;;19.63;48.59
52032;BME280;38044;45.148;39.604;2022-11-04T09:22:22;101092.00;;;19.24;48.84
52032;BME280;38044;45.148;39.604;2022-11-04T09:24:48;101178.75;;;20.25;46.88
52032;BME280;38044;45.148;39.604;2022-11-04T09:27:14;101185.47;;;20.52;46.82
52032;BME280;38044;45.148;39.604;2022-11-04T09:29:40;101172.91;;;20.88;45.49
52032;BME280;38044;45.148;39.604;2022-11-04T09:32:07;101101.69;;;20.68;45.82
52032;BME280;38044;45.148;39.604;2022-11-04T09:34:33;101176.16;;;21.62;44.78
52032;BME280;38044;45.148;39.604;2022-11-04T09:36:59;101182.34;;;21.91;43.63
52032;BME280;38044;45.148;39.604;2022-11-04T09:39:25;101170.13;;;21.41;44.31
52032;BME280;38044;45.148;39.604;2022-11-04T09:44:56;101173.19;;;20.09;47.43
52032;BME280;38044;45.148;39.604;2022-11-04T09:47:26;101172.22;;;19.35;47.88
52032;BME280;38044;45.148;39.604;2022-11-04T09:49:55;101144.22;;;18.42;49.41
52032;BME280;38044;45.148;39.604;2022-11-04T09:52:25;101172.34;;;18.16;50.63
52032;BME280;38044;45.148;39.604;2022-11-04T09:54:58;101164.91;;;17.23;52.30
52032;BME280;38044;45.148;39.604;2022-11-04T09:57:26;101143.63;;;16.73;53.62
52032;BME280;38044;45.148;39.604;2022-11-04T09:59:53;101077.28;;;16.13;54.02
52032;BME280;38044;45.148;39.604;2022-11-04T10:05:29;101152.53;;;16.64;54.74
52032;BME280;38044;45.148;39.604;2022-11-04T10:08:07;101158.75;;;16.48;55.28
52032;BME280;38044;45.148;39.604;2022-11-04T10:11:16;101146.44;;;16.41;55.21
52032;BME280;38044;45.148;39.604;2022-11-04T10:24:41;101126.94;;;17.61;51.97
52032;BME280;38044;45.148;39.604;2022-11-04T10:27:14;101120.47;;;17.27;52.10
52032;BME280;38044;45.148;39.604;2022-11-04T10:29:49;101042.03;;;16.21;52.55
52032;BME280;38044;45.148;39.604;2022-11-04T10:32:21;101081.28;;;16.15;53.27
52032;BME280;38044;45.148;39.604;2022-11-04T10:34:59;101103.81;;;16.33;53.84
52032;BME280;38044;45.148;39.604;2022-11-04T10:37:27;101101.59;;;16.35;53.42
52032;BME280;38044;45.148;39.604;2022-11-04T10:40:15;101115.56;;;16.77;53.00
52032;BME280;38044;45.148;39.604;2022-11-04T10:42:42;101103.41;;;16.92;52.43
52032;BME280;38044;45.148;39.604;2022-11-04T10:45:12;101038.09;;;16.71;51.90
52032;BME280;38044;45.148;39.604;2022-11-04T10:47:54;101043.50;;;16.71;51.78
52032;BME280;38044;45.148;39.604;2022-11-04T10:50:33;101094.00;;;16.89;52.00
52032;BME280;38044;45.148;39.604;2022-11-04T10:53:10;101070.97;;;16.61;52.39
52032;BME280;38044;45.148;39.604;2022-11-04T10:58:29;101094.41;;;16.39;53.54
52032;BME280;38044;45.148;39.604;2022-11-04T11:00:56;101006.28;;;15.62;53.69
52032;BME280;38044;45.148;39.604;2022-11-04T11:03:28;101103.88;;;16.02;53.48
52032;BME280;38044;45.148;39.604;2022-11-04T11:06:12;101091.22;;;15.80;53.87
52032;BME280;38044;45.148;39.604;2022-11-04T11:08:40;101091.19;;;15.49;54.54
52032;BME280;38044;45.148;39.604;2022-11-04T11:11:07;101104.06;;;15.43;55.35
52032;BME280;38044;45.148;39.604;2022-11-04T11:13:37;101113.31;;;15.42;55.65
52032;BME280;38044;45.148;39.604;2022-11-04T11:16:25;101025.47;;;15.03;55.25
52032;BME280;38044;45.148;39.604;2022-11-04T11:19:27;101089.16;;;15.54;55.37
52032;BME280;38044;45.148;39.604;2022-11-04T11:21:56;101113.66;;;15.72;55.35
52032;BME280;38044;45.148;39.604;2022-11-04T11:24:24;101094.41;;;15.51;55.92
52032;BME280;38044;45.148;39.604;2022-11-04T11:26:56;101095.47;;;15.41;55.89
52032;BME280;38044;45.148;39.604;2022-11-04T11:29:28;101096.69;;;15.35;56.25
52032;BME280;38044;45.148;39.604;2022-11-04T11:31:56;101038.38;;;14.84;56.42
52032;BME280;38044;45.148;39.604;2022-11-04T11:34:27;101100.28;;;15.22;57.05
52032;BME280;38044;45.148;39.604;2022-11-04T11:36:56;101085.25;;;14.93;57.25
52032;BME280;38044;45.148;39.604;2022-11-04T11:39:26;101019.66;;;14.51;57.26
52032;BME280;38044;45.148;39.604;2022-11-04T11:41:59;101086.59;;;14.82;57.32
52032;BME280;38044;45.148;39.604;2022-11-04T11:46:58;101105.94;;;14.89;57.65
52032;BME280;38044;45.148;39.604;2022-11-04T11:49:29;101112.94;;;14.90;57.77
52032;BME280;38044;45.148;39.604;2022-11-04T11:52:36;101113.22;;;15.02;58.01
52032;BME280;38044;45.148;39.604;2022-11-04T11:55:23;101108.47;;;15.08;57.92
52032;BME280;38044;45.148;39.604;2022-11-04T12:00:37;101119.75;;;14.87;59.62
52032;BME280;38044;45.148;39.604;2022-11-04T12:06:11;101123.22;;;14.79;61.71
52032;BME280;38044;45.148;39.604;2022-11-04T12:08:58;101038.38;;;14.25;62.73
52032;BME280;38044;45.148;39.604;2022-11-04T12:14:05;101013.81;;;14.22;63.01
52032;BME280;38044;45.148;39.604;2022-11-04T12:16:45;101118.59;;;14.80;63.37
52032;BME280;38044;45.148;39.604;2022-11-04T12:19:26;101100.38;;;14.72;62.94
52032;BME280;38044;45.148;39.604;2022-11-04T12:22:23;101110.28;;;14.76;62.56
52032;BME280;38044;45.148;39.604;2022-11-04T12:30:23;101063.59;;;14.20;64.47
52032;BME280;38044;45.148;39.604;2022-11-04T12:33:17;101137.22;;;14.81;64.65
52032;BME280;38044;45.148;39.604;2022-11-04T12:40:50;101127.66;;;14.61;64.54
52032;BME280;38044;45.148;39.604;2022-11-04T12:49:06;101116.09;;;14.19;65.54
52032;BME280;38044;45.148;39.604;2022-11-04T12:54:42;101134.41;;;14.09;66.17
52032;BME280;38044;45.148;39.604;2022-11-04T13:00:08;101169.34;;;14.05;66.65
52032;BME280;38044;45.148;39.604;2022-11-04T13:10:24;101106.53;;;12.82;68.31
52032;BME280;38044;45.148;39.604;2022-11-04T13:12:52;101042.31;;;12.28;68.11
52032;BME280;38044;45.148;39.604;2022-11-04T13:15:23;101184.78;;;13.01;69.01
52032;BME280;38044;45.148;39.604;2022-11-04T13:17:54;101161.00;;;12.84;69.19
52032;BME280;38044;45.148;39.604;2022-11-04T13:23:15;101124.31;;;12.65;69.45
52032;BME280;38044;45.148;39.604;2022-11-04T13:25:44;101087.09;;;12.48;69.39
52032;BME280;38044;45.148;39.604;2022-11-04T13:28:15;101076.84;;;12.45;69.44
52032;BME280;38044;45.148;39.604;2022-11-04T13:31:02;101186.47;;;13.16;69.86
52032;BME280;38044;45.148;39.604;2022-11-04T13:33:57;101175.09;;;13.19;69.72
52032;BME280;38044;45.148;39.604;2022-11-04T13:36:40;101143.34;;;12.92;69.64
52032;BME280;38044;45.148;39.604;2022-11-04T13:39:55;101145.31;;;12.87;69.88
52032;BME280;38044;45.148;39.604;2022-11-04T13:44:54;101166.78;;;12.97;69.97
52032;BME280;38044;45.148;39.604;2022-11-04T13:47:49;101059.41;;;12.18;70.05
52032;BME280;38044;45.148;39.604;2022-11-04T13:50:37;101103.84;;;12.63;69.51
52032;BME280;38044;45.148;39.604;2022-11-04T13:53:09;100983.41;;;11.73;69.71
52032;BME280;38044;45.148;39.604;2022-11-04T13:55:47;101162.91;;;12.84;70.03
52032;BME280;38044;45.148;39.604;2022-11-04T13:58:24;101179.75;;;12.95;70.13
52032;BME280;38044;45.148;39.604;2022-11-04T14:04:00;101142.03;;;12.52;69.18
52032;BME280;38044;45.148;39.604;2022-11-04T14:14:50;101032.00;;;11.10;70.61
52032;BME280;38044;45.148;39.604;2022-11-04T14:22:30;101158.47;;;11.44;71.49
52032;BME280;38044;45.148;39.604;2022-11-04T14:24:59;101181.84;;;11.54;71.49
52032;BME280;38044;45.148;39.604;2022-11-04T14:27:38;101197.53;;;11.41;72.15
52032;BME280;38044;45.148;39.604;2022-11-04T14:30:06;101192.75;;;11.33;71.85
52032;BME280;38044;45.148;39.604;2022-11-04T14:32:38;101177.25;;;11.15;71.98
52032;BME280;38044;45.148;39.604;2022-11-04T14:35:06;101025.09;;;10.14;71.63
52032;BME280;38044;45.148;39.604;2022-11-04T14:37:40;101198.22;;;11.18;71.45
52032;BME280;38044;45.148;39.604;2022-11-04T14:40:14;101197.47;;;11.07;71.46
52032;BME280;38044;45.148;39.604;2022-11-04T14:42:54;101098.09;;;10.42;71.67
52032;BME280;38044;45.148;39.604;2022-11-04T14:45:24;101176.06;;;10.87;71.97
52032;BME280;38044;45.148;39.604;2022-11-04T14:47:55;101047.22;;;9.96;71.71
52032;BME280;38044;45.148;39.604;2022-11-04T14:50:27;101222.00;;;11.00;72.26
52032;BME280;38044;45.148;39.604;2022-11-04T14:53:01;101054.44;;;9.96;72.19
52032;BME280;38044;45.148;39.604;2022-11-04T14:55:30;101217.28;;;10.77;72.19
52032;BME280;38044;45.148;39.604;2022-11-04T14:58:19;101162.03;;;10.50;72.15
52032;BME280;38044;45.148;39.604;2022-11-04T15:05:50;101242.03;;;10.74;72.18
52032;BME280;38044;45.148;39.604;2022-11-04T15:08:31;101191.31;;;10.47;72.50
52032;BME280;38044;45.148;39.604;2022-11-04T15:13:32;101245.28;;;10.66;72.41